sensor_id;sensor_type;location;lat;lon;timestamp;P1;durP1;ratioP1;P2;durP2;ratioP2
65667;SDS011;52369;52.542;13.232;2022-08-03T00:01:25;10.02;;;5.53;;
65667;SDS011;52369;52.542;13.232;2022-08-03T00:03:51;7.50;;;5.13;;
65667;SDS011;52369;52.542;13.232;2022-08-03T00:06:17;10.57;;;5.75;;
65667;SDS011;52369;52.542;13.232;2022-08-03T00:08:43;9.30;;;5.03;;
65667;SDS011;52369;52.542;13.232;2022-08-03T00:11:09;9.77;;;5.57;;
65667;SDS011;52369;52.542;13.232;2022-08-03T00:13:35;9.82;;;5.75;;
65667;SDS011;52369;52.542;13.232;2022-08-03T00:16:01;11.50;;;5.47;;
65667;SDS011;52369;52.542;13.232;2022-08-03T00:18:27;8.57;;;5.38;;
65667;SDS011;52369;52.542;13.232;2022-08-03T00:20:53;10.38;;;5.57;;
65667;SDS011;52369;52.542;13.232;2022-08-03T00:23:19;8.45;;;5.10;;
65667;SDS011;52369;52.542;13.232;2022-08-03T00:25:45;9.65;;;5.50;;
65667;SDS011;52369;52.542;13.232;2022-08-03T00:28:12;9.50;;;5.88;;
65667;SDS011;52369;52.542;13.232;2022-08-03T00:30:38;9.00;;;5.63;;
65667;SDS011;52369;52.542;13.232;2022-08-03T00:33:04;9.57;;;5.40;;
65667;SDS011;52369;52.542;13.232;2022-08-03T00:35:30;10.85;;;5.88;;
65667;SDS011;52369;52.542;13.232;2022-08-03T00:37:56;8.90;;;5.18;;
65667;SDS011;52369;52.542;13.232;2022-08-03T00:40:22;10.85;;;5.18;;
65667;SDS011;52369;52.542;13.232;2022-08-03T00:42:55;11.18;;;5.85;;
65667;SDS011;52369;52.542;13.232;2022-08-03T00:45:22;8.98;;;5.20;;
65667;SDS011;52369;52.542;13.232;2022-08-03T00:47:48;9.30;;;5.30;;
65667;SDS011;52369;52.542;13.232;2022-08-03T00:50:15;8.05;;;5.00;;
65667;SDS011;52369;52.542;13.232;2022-08-03T00:52:41;10.07;;;5.25;;
65667;SDS011;52369;52.542;13.232;2022-08-03T00:55:08;9.38;;;4.70;;
65667;SDS011;52369;52.542;13.232;2022-08-03T00:57:34;9.77;;;5.00;;
65667;SDS011;52369;52.542;13.232;2022-08-03T01:00:01;8.85;;;4.85;;
65667;SDS011;52369;52.542;13.232;2022-08-03T01:02:27;8.55;;;4.47;;
65667;SDS011;52369;52.542;13.232;2022-08-03T01:04:53;11.15;;;4.95;;
65667;SDS011;52369;52.542;13.232;2022-08-03T01:12:23;12.40;;;4.47;;
65667;SDS011;52369;52.542;13.232;2022-08-03T01:15:05;9.65;;;4.90;;
65667;SDS011;52369;52.542;13.232;2022-08-03T01:20:08;9.98;;;4.57;;
65667;SDS011;52369;52.542;13.232;2022-08-03T01:30:29;7.07;;;3.72;;
65667;SDS011;52369;52.542;13.232;2022-08-03T01:32:57;6.60;;;4.10;;
65667;SDS011;52369;52.542;13.232;2022-08-03T01:35:26;6.20;;;4.20;;
65667;SDS011;52369;52.542;13.232;2022-08-03T01:37:56;6.28;;;4.15;;
65667;SDS011;52369;52.542;13.232;2022-08-03T01:40:23;7.38;;;4.13;;
65667;SDS011;52369;52.542;13.232;2022-08-03T01:42:50;8.05;;;4.68;;
65667;SDS011;52369;52.542;13.232;2022-08-03T01:45:17;9.73;;;4.20;;
65667;SDS011;52369;52.542;13.232;2022-08-03T01:47:44;7.05;;;4.15;;
65667;SDS011;52369;52.542;13.232;2022-08-03T01:50:10;8.52;;;5.25;;
65667;SDS011;52369;52.542;13.232;2022-08-03T01:52:38;7.40;;;4.60;;
65667;SDS011;52369;52.542;13.232;2022-08-03T01:55:06;8.07;;;4.63;;
65667;SDS011;52369;52.542;13.232;2022-08-03T01:57:32;6.45;;;4.38;;
65667;SDS011;52369;52.542;13.232;2022-08-03T01:59:59;8.65;;;5.03;;
65667;SDS011;52369;52.542;13.232;2022-08-03T02:02:26;6.00;;;4.18;;
65667;SDS011;52369;52.542;13.232;2022-08-03T02:04:53;9.45;;;4.55;;
65667;SDS011;52369;52.542;13.232;2022-08-03T02:07:20;7.55;;;4.50;;
65667;SDS011;52369;52.542;13.232;2022-08-03T02:09:49;7.70;;;4.80;;
65667;SDS011;52369;52.542;13.232;2022-08-03T02:12:16;6.35;;;4.57;;
65667;SDS011;52369;52.542;13.232;2022-08-03T02:14:43;7.68;;;5.00;;
65667;SDS011;52369;52.542;13.232;2022-08-03T02:17:10;7.43;;;4.65;;
65667;SDS011;52369;52.542;13.232;2022-08-03T02:19:37;7.47;;;4.38;;
65667;SDS011;52369;52.542;13.232;2022-08-03T02:22:04;7.25;;;4.82;;
65667;SDS011;52369;52.542;13.232;2022-08-03T02:24:30;5.32;;;4.30;;
65667;SDS011;52369;52.542;13.232;2022-08-03T02:26:56;8.70;;;5.40;;
65667;SDS011;52369;52.542;13.232;2022-08-03T02:29:24;6.85;;;4.70;;
65667;SDS011;52369;52.542;13.232;2022-08-03T02:31:51;6.80;;;4.40;;
65667;SDS011;52369;52.542;13.232;2022-08-03T02:34:17;9.43;;;4.55;;
65667;SDS011;52369;52.542;13.232;2022-08-03T02:36:46;7.22;;;4.75;;
65667;SDS011;52369;52.542;13.232;2022-08-03T02:39:15;8.27;;;4.30;;
65667;SDS011;52369;52.542;13.232;2022-08-03T02:41:42;6.82;;;4.22;;
65667;SDS011;52369;52.542;13.232;2022-08-03T02:44:11;9.30;;;4.53;;
65667;SDS011;52369;52.542;13.232;2022-08-03T02:46:37;7.85;;;5.03;;
65667;SDS011;52369;52.542;13.232;2022-08-03T02:49:04;8.73;;;4.82;;
65667;SDS011;52369;52.542;13.232;2022-08-03T02:51:31;6.82;;;4.78;;
65667;SDS011;52369;52.542;13.232;2022-08-03T02:53:58;8.15;;;4.50;;
65667;SDS011;52369;52.542;13.232;2022-08-03T02:56:25;5.78;;;4.80;;
65667;SDS011;52369;52.542;13.232;2022-08-03T02:58:52;9.15;;;4.75;;
65667;SDS011;52369;52.542;13.232;2022-08-03T03:01:19;7.80;;;4.75;;
65667;SDS011;52369;52.542;13.232;2022-08-03T03:03:46;7.70;;;4.70;;
65667;SDS011;52369;52.542;13.232;2022-08-03T03:06:14;9.25;;;4.65;;
65667;SDS011;52369;52.542;13.232;2022-08-03T03:08:41;6.78;;;4.43;;
65667;SDS011;52369;52.542;13.232;2022-08-03T03:11:07;10.60;;;5.15;;
65667;SDS011;52369;52.542;13.232;2022-08-03T03:13:33;7.93;;;5.38;;
65667;SDS011;52369;52.542;13.232;2022-08-03T03:16:01;7.97;;;5.55;;
65667;SDS011;52369;52.542;13.232;2022-08-03T03:18:27;7.10;;;5.47;;
65667;SDS011;52369;52.542;13.232;2022-08-03T03:20:53;9.30;;;5.22;;
65667;SDS011;52369;52.542;13.232;2022-08-03T03:23:20;6.95;;;5.32;;
65667;SDS011;52369;52.542;13.232;2022-08-03T03:25:46;8.70;;;5.65;;
65667;SDS011;52369;52.542;13.232;2022-08-03T03:28:13;9.18;;;5.70;;
65667;SDS011;52369;52.542;13.232;2022-08-03T03:30:39;9.63;;;6.00;;
65667;SDS011;52369;52.542;13.232;2022-08-03T03:33:05;8.93;;;5.80;;
65667;SDS011;52369;52.542;13.232;2022-08-03T03:35:31;10.05;;;6.30;;
65667;SDS011;52369;52.542;13.232;2022-08-03T03:37:57;10.70;;;6.25;;
65667;SDS011;52369;52.542;13.232;2022-08-03T03:40:23;11.68;;;7.28;;
65667;SDS011;52369;52.542;13.232;2022-08-03T03:42:49;9.95;;;6.03;;
65667;SDS011;52369;52.542;13.232;2022-08-03T03:45:15;10.00;;;6.95;;
65667;SDS011;52369;52.542;13.232;2022-08-03T03:47:42;9.98;;;6.18;;
65667;SDS011;52369;52.542;13.232;2022-08-03T03:50:08;10.18;;;5.80;;
65667;SDS011;52369;52.542;13.232;2022-08-03T03:52:35;9.85;;;6.50;;
65667;SDS011;52369;52.542;13.232;2022-08-03T03:55:01;12.52;;;6.60;;
65667;SDS011;52369;52.542;13.232;2022-08-03T03:57:27;9.65;;;5.57;;
65667;SDS011;52369;52.542;13.232;2022-08-03T03:59:53;9.68;;;5.82;;
65667;SDS011;52369;52.542;13.232;2022-08-03T04:02:19;9.57;;;6.00;;
65667;SDS011;52369;52.542;13.232;2022-08-03T04:04:45;11.65;;;6.63;;
65667;SDS011;52369;52.542;13.232;2022-08-03T04:07:31;10.50;;;5.97;;
65667;SDS011;52369;52.542;13.232;2022-08-03T04:10:20;12.07;;;6.45;;
65667;SDS011;52369;52.542;13.232;2022-08-03T04:13:06;12.73;;;6.70;;
65667;SDS011;52369;52.542;13.232;2022-08-03T04:15:34;12.63;;;6.30;;
65667;SDS011;52369;52.542;13.232;2022-08-03T04:18:02;13.25;;;6.65;;
65667;SDS011;52369;52.542;13.232;2022-08-03T04:20:29;12.35;;;6.25;;
65667;SDS011;52369;52.542;13.232;2022-08-03T04:22:56;10.50;;;5.40;;
65667;SDS011;52369;52.542;13.232;2022-08-03T04:25:24;14.45;;;5.82;;
65667;SDS011;52369;52.542;13.232;2022-08-03T04:27:51;11.27;;;5.38;;
65667;SDS011;52369;52.542;13.232;2022-08-03T04:30:19;12.15;;;5.07;;
65667;SDS011;52369;52.542;13.232;2022-08-03T04:32:46;9.75;;;5.50;;
65667;SDS011;52369;52.542;13.232;2022-08-03T04:35:15;10.00;;;5.85;;
65667;SDS011;52369;52.542;13.232;2022-08-03T04:37:43;11.82;;;5.63;;
65667;SDS011;52369;52.542;13.232;2022-08-03T04:40:18;9.70;;;5.25;;
65667;SDS011;52369;52.542;13.232;2022-08-03T04:42:45;10.63;;;5.20;;
65667;SDS011;52369;52.542;13.232;2022-08-03T04:45:12;8.65;;;4.90;;
65667;SDS011;52369;52.542;13.232;2022-08-03T04:47:39;8.82;;;5.20;;
65667;SDS011;52369;52.542;13.232;2022-08-03T04:50:06;10.05;;;5.00;;
65667;SDS011;52369;52.542;13.232;2022-08-03T04:52:32;9.05;;;5.18;;
65667;SDS011;52369;52.542;13.232;2022-08-03T04:54:59;9.77;;;4.95;;
65667;SDS011;52369;52.542;13.232;2022-08-03T04:57:25;9.30;;;4.57;;
65667;SDS011;52369;52.542;13.232;2022-08-03T04:59:51;9.00;;;4.35;;
65667;SDS011;52369;52.542;13.232;2022-08-03T05:02:21;11.45;;;4.95;;
65667;SDS011;52369;52.542;13.232;2022-08-03T05:04:47;7.40;;;4.13;;
65667;SDS011;52369;52.542;13.232;2022-08-03T05:07:14;6.57;;;4.25;;
65667;SDS011;52369;52.542;13.232;2022-08-03T05:09:40;6.55;;;3.53;;
65667;SDS011;52369;52.542;13.232;2022-08-03T05:12:06;9.65;;;3.80;;
65667;SDS011;52369;52.542;13.232;2022-08-03T05:14:33;6.57;;;3.60;;
65667;SDS011;52369;52.542;13.232;2022-08-03T05:17:01;5.57;;;3.20;;
65667;SDS011;52369;52.542;13.232;2022-08-03T05:19:27;5.60;;;3.58;;
65667;SDS011;52369;52.542;13.232;2022-08-03T05:21:53;6.68;;;3.75;;
65667;SDS011;52369;52.542;13.232;2022-08-03T05:24:19;6.68;;;3.20;;
65667;SDS011;52369;52.542;13.232;2022-08-03T05:26:45;6.57;;;3.70;;
65667;SDS011;52369;52.542;13.232;2022-08-03T05:29:11;5.85;;;3.45;;
65667;SDS011;52369;52.542;13.232;2022-08-03T05:31:37;7.15;;;3.20;;
65667;SDS011;52369;52.542;13.232;2022-08-03T05:34:04;6.72;;;3.58;;
65667;SDS011;52369;52.542;13.232;2022-08-03T05:36:30;6.53;;;3.35;;
65667;SDS011;52369;52.542;13.232;2022-08-03T05:38:56;6.20;;;3.10;;
65667;SDS011;52369;52.542;13.232;2022-08-03T05:41:22;7.40;;;3.35;;
65667;SDS011;52369;52.542;13.232;2022-08-03T05:43:48;9.27;;;3.25;;
65667;SDS011;52369;52.542;13.232;2022-08-03T05:46:14;8.63;;;3.30;;
65667;SDS011;52369;52.542;13.232;2022-08-03T05:48:41;5.43;;;3.63;;
65667;SDS011;52369;52.542;13.232;2022-08-03T05:51:07;6.95;;;3.20;;
65667;SDS011;52369;52.542;13.232;2022-08-03T05:53:35;12.85;;;3.40;;
65667;SDS011;52369;52.542;13.232;2022-08-03T05:56:01;8.18;;;2.97;;
65667;SDS011;52369;52.542;13.232;2022-08-03T05:58:28;6.78;;;3.40;;
65667;SDS011;52369;52.542;13.232;2022-08-03T06:00:53;5.05;;;3.50;;
65667;SDS011;52369;52.542;13.232;2022-08-03T06:03:19;5.47;;;3.13;;
65667;SDS011;52369;52.542;13.232;2022-08-03T06:05:46;6.93;;;3.00;;
65667;SDS011;52369;52.542;13.232;2022-08-03T06:08:12;6.13;;;3.13;;
65667;SDS011;52369;52.542;13.232;2022-08-03T06:10:38;10.45;;;3.10;;
65667;SDS011;52369;52.542;13.232;2022-08-03T06:13:04;8.73;;;3.20;;
65667;SDS011;52369;52.542;13.232;2022-08-03T06:15:30;5.65;;;2.78;;
65667;SDS011;52369;52.542;13.232;2022-08-03T06:17:57;7.88;;;3.25;;
65667;SDS011;52369;52.542;13.232;2022-08-03T06:20:24;10.57;;;3.20;;
65667;SDS011;52369;52.542;13.232;2022-08-03T06:22:50;7.20;;;2.75;;
65667;SDS011;52369;52.542;13.232;2022-08-03T06:25:16;3.20;;;2.60;;
65667;SDS011;52369;52.542;13.232;2022-08-03T06:27:43;4.05;;;2.78;;
65667;SDS011;52369;52.542;13.232;2022-08-03T06:30:10;5.85;;;2.72;;
65667;SDS011;52369;52.542;13.232;2022-08-03T06:32:36;7.95;;;2.80;;
65667;SDS011;52369;52.542;13.232;2022-08-03T06:35:03;9.50;;;2.70;;
65667;SDS011;52369;52.542;13.232;2022-08-03T06:37:30;9.57;;;3.00;;
65667;SDS011;52369;52.542;13.232;2022-08-03T06:39:56;5.68;;;2.60;;
65667;SDS011;52369;52.542;13.232;2022-08-03T06:42:22;4.07;;;2.40;;
65667;SDS011;52369;52.542;13.232;2022-08-03T06:44:48;3.60;;;2.25;;
65667;SDS011;52369;52.542;13.232;2022-08-03T06:47:15;5.95;;;2.45;;
65667;SDS011;52369;52.542;13.232;2022-08-03T06:49:41;3.50;;;2.40;;
65667;SDS011;52369;52.542;13.232;2022-08-03T06:52:07;5.05;;;2.65;;
65667;SDS011;52369;52.542;13.232;2022-08-03T06:54:33;4.38;;;2.40;;
65667;SDS011;52369;52.542;13.232;2022-08-03T06:56:59;4.32;;;2.13;;
65667;SDS011;52369;52.542;13.232;2022-08-03T06:59:25;4.85;;;2.63;;
65667;SDS011;52369;52.542;13.232;2022-08-03T07:01:51;5.47;;;2.38;;
65667;SDS011;52369;52.542;13.232;2022-08-03T07:04:17;4.55;;;2.30;;
65667;SDS011;52369;52.542;13.232;2022-08-03T07:06:43;5.50;;;2.60;;
65667;SDS011;52369;52.542;13.232;2022-08-03T07:09:09;8.02;;;2.88;;
65667;SDS011;52369;52.542;13.232;2022-08-03T07:11:35;7.68;;;2.60;;
65667;SDS011;52369;52.542;13.232;2022-08-03T07:14:01;4.68;;;3.03;;
65667;SDS011;52369;52.542;13.232;2022-08-03T07:16:28;4.88;;;2.97;;
65667;SDS011;52369;52.542;13.232;2022-08-03T07:18:54;8.18;;;2.60;;
65667;SDS011;52369;52.542;13.232;2022-08-03T07:21:20;5.70;;;2.55;;
65667;SDS011;52369;52.542;13.232;2022-08-03T07:23:46;5.60;;;3.28;;
65667;SDS011;52369;52.542;13.232;2022-08-03T07:26:12;3.47;;;2.40;;
65667;SDS011;52369;52.542;13.232;2022-08-03T07:28:38;5.07;;;2.40;;
65667;SDS011;52369;52.542;13.232;2022-08-03T07:31:04;7.75;;;2.83;;
65667;SDS011;52369;52.542;13.232;2022-08-03T07:33:30;3.42;;;2.20;;
65667;SDS011;52369;52.542;13.232;2022-08-03T07:35:56;4.57;;;2.50;;
65667;SDS011;52369;52.542;13.232;2022-08-03T07:38:22;5.32;;;2.65;;
65667;SDS011;52369;52.542;13.232;2022-08-03T07:40:48;7.25;;;2.60;;
65667;SDS011;52369;52.542;13.232;2022-08-03T07:43:14;6.20;;;2.70;;
65667;SDS011;52369;52.542;13.232;2022-08-03T07:45:41;6.20;;;2.83;;
65667;SDS011;52369;52.542;13.232;2022-08-03T07:48:07;8.50;;;2.67;;
65667;SDS011;52369;52.542;13.232;2022-08-03T07:50:33;6.38;;;3.00;;
65667;SDS011;52369;52.542;13.232;2022-08-03T07:52:59;12.23;;;3.08;;
65667;SDS011;52369;52.542;13.232;2022-08-03T07:55:25;6.45;;;2.65;;
65667;SDS011;52369;52.542;13.232;2022-08-03T07:58:13;4.03;;;2.38;;
65667;SDS011;52369;52.542;13.232;2022-08-03T08:00:42;10.20;;;3.13;;
65667;SDS011;52369;52.542;13.232;2022-08-03T08:03:08;5.03;;;2.65;;
65667;SDS011;52369;52.542;13.232;2022-08-03T08:05:35;3.47;;;2.70;;
65667;SDS011;52369;52.542;13.232;2022-08-03T08:08:01;6.38;;;2.67;;
65667;SDS011;52369;52.542;13.232;2022-08-03T08:10:28;6.90;;;3.13;;
65667;SDS011;52369;52.542;13.232;2022-08-03T08:12:54;5.47;;;2.60;;
65667;SDS011;52369;52.542;13.232;2022-08-03T08:15:20;6.90;;;2.80;;
65667;SDS011;52369;52.542;13.232;2022-08-03T08:17:51;2.75;;;2.33;;
65667;SDS011;52369;52.542;13.232;2022-08-03T08:20:22;3.67;;;2.30;;
65667;SDS011;52369;52.542;13.232;2022-08-03T08:22:48;4.78;;;2.38;;
65667;SDS011;52369;52.542;13.232;2022-08-03T08:25:14;5.25;;;2.40;;
65667;SDS011;52369;52.542;13.232;2022-08-03T08:27:41;4.13;;;2.30;;
65667;SDS011;52369;52.542;13.232;2022-08-03T08:30:07;5.00;;;2.42;;
65667;SDS011;52369;52.542;13.232;2022-08-03T08:32:33;4.70;;;2.60;;
65667;SDS011;52369;52.542;13.232;2022-08-03T08:35:01;3.58;;;2.50;;
65667;SDS011;52369;52.542;13.232;2022-08-03T08:37:27;3.42;;;2.40;;
65667;SDS011;52369;52.542;13.232;2022-08-03T08:39:54;2.35;;;2.15;;
65667;SDS011;52369;52.542;13.232;2022-08-03T08:42:20;4.55;;;2.80;;
65667;SDS011;52369;52.542;13.232;2022-08-03T08:44:46;5.05;;;2.63;;
65667;SDS011;52369;52.542;13.232;2022-08-03T08:47:13;4.22;;;3.38;;
65667;SDS011;52369;52.542;13.232;2022-08-03T08:49:40;4.38;;;2.47;;
65667;SDS011;52369;52.542;13.232;2022-08-03T08:52:09;4.95;;;2.28;;
65667;SDS011;52369;52.542;13.232;2022-08-03T08:54:36;6.70;;;2.78;;
65667;SDS011;52369;52.542;13.232;2022-08-03T08:57:03;2.88;;;2.10;;
65667;SDS011;52369;52.542;13.232;2022-08-03T08:59:32;3.55;;;2.08;;
65667;SDS011;52369;52.542;13.232;2022-08-03T09:02:01;3.40;;;2.50;;
65667;SDS011;52369;52.542;13.232;2022-08-03T09:04:27;5.15;;;2.50;;
65667;SDS011;52369;52.542;13.232;2022-08-03T09:06:54;4.10;;;2.30;;
65667;SDS011;52369;52.542;13.232;2022-08-03T09:09:20;4.40;;;2.40;;
65667;SDS011;52369;52.542;13.232;2022-08-03T09:11:47;2.75;;;2.35;;
65667;SDS011;52369;52.542;13.232;2022-08-03T09:14:14;3.42;;;2.20;;
65667;SDS011;52369;52.542;13.232;2022-08-03T09:16:59;2.60;;;2.33;;
65667;SDS011;52369;52.542;13.232;2022-08-03T09:19:26;5.00;;;2.30;;
65667;SDS011;52369;52.542;13.232;2022-08-03T09:24:35;4.30;;;2.40;;
65667;SDS011;52369;52.542;13.232;2022-08-03T09:27:01;2.72;;;2.53;;
65667;SDS011;52369;52.542;13.232;2022-08-03T09:29:30;3.85;;;2.40;;
65667;SDS011;52369;52.542;13.232;2022-08-03T09:32:00;5.57;;;3.22;;
65667;SDS011;52369;52.542;13.232;2022-08-03T09:34:27;7.20;;;2.92;;
65667;SDS011;52369;52.542;13.232;2022-08-03T09:36:53;2.88;;;2.30;;
65667;SDS011;52369;52.542;13.232;2022-08-03T09:39:21;3.75;;;2.88;;
65667;SDS011;52369;52.542;13.232;2022-08-03T09:42:03;5.10;;;2.60;;
65667;SDS011;52369;52.542;13.232;2022-08-03T09:44:33;5.00;;;2.40;;
65667;SDS011;52369;52.542;13.232;2022-08-03T09:47:00;4.13;;;2.67;;
65667;SDS011;52369;52.542;13.232;2022-08-03T09:49:26;3.60;;;2.40;;
65667;SDS011;52369;52.542;13.232;2022-08-03T09:51:52;5.30;;;2.80;;
65667;SDS011;52369;52.542;13.232;2022-08-03T09:54:27;4.63;;;2.47;;
65667;SDS011;52369;52.542;13.232;2022-08-03T09:56:54;4.57;;;2.58;;
65667;SDS011;52369;52.542;13.232;2022-08-03T09:59:27;2.30;;;2.10;;
65667;SDS011;52369;52.542;13.232;2022-08-03T10:01:53;2.65;;;2.30;;
65667;SDS011;52369;52.542;13.232;2022-08-03T10:04:20;3.63;;;2.25;;
65667;SDS011;52369;52.542;13.232;2022-08-03T10:07:02;6.95;;;2.60;;
65667;SDS011;52369;52.542;13.232;2022-08-03T10:09:29;3.10;;;2.05;;
65667;SDS011;52369;52.542;13.232;2022-08-03T10:11:55;5.55;;;2.40;;
65667;SDS011;52369;52.542;13.232;2022-08-03T10:14:21;3.17;;;2.08;;
65667;SDS011;52369;52.542;13.232;2022-08-03T10:16:47;4.10;;;2.28;;
65667;SDS011;52369;52.542;13.232;2022-08-03T10:19:14;4.05;;;2.20;;
65667;SDS011;52369;52.542;13.232;2022-08-03T10:21:41;4.60;;;2.15;;
65667;SDS011;52369;52.542;13.232;2022-08-03T10:24:11;5.22;;;2.63;;
65667;SDS011;52369;52.542;13.232;2022-08-03T10:26:40;4.82;;;2.65;;
65667;SDS011;52369;52.542;13.232;2022-08-03T10:29:11;4.43;;;2.38;;
65667;SDS011;52369;52.542;13.232;2022-08-03T10:31:38;3.38;;;2.35;;
65667;SDS011;52369;52.542;13.232;2022-08-03T10:34:08;3.40;;;2.40;;
65667;SDS011;52369;52.542;13.232;2022-08-03T10:36:37;3.95;;;2.25;;
65667;SDS011;52369;52.542;13.232;2022-08-03T10:39:04;4.95;;;2.67;;
65667;SDS011;52369;52.542;13.232;2022-08-03T10:41:32;4.13;;;2.95;;
65667;SDS011;52369;52.542;13.232;2022-08-03T10:44:03;6.70;;;2.75;;
65667;SDS011;52369;52.542;13.232;2022-08-03T10:46:30;4.05;;;2.50;;
65667;SDS011;52369;52.542;13.232;2022-08-03T10:48:57;2.38;;;2.17;;
65667;SDS011;52369;52.542;13.232;2022-08-03T10:51:23;4.43;;;2.28;;
65667;SDS011;52369;52.542;13.232;2022-08-03T10:53:54;3.70;;;2.35;;
65667;SDS011;52369;52.542;13.232;2022-08-03T11:02:01;4.30;;;2.47;;
65667;SDS011;52369;52.542;13.232;2022-08-03T11:04:32;4.57;;;2.33;;
65667;SDS011;52369;52.542;13.232;2022-08-03T11:09:43;3.08;;;2.50;;
65667;SDS011;52369;52.542;13.232;2022-08-03T11:12:27;3.13;;;2.42;;
65667;SDS011;52369;52.542;13.232;2022-08-03T11:17:19;6.03;;;2.50;;
65667;SDS011;52369;52.542;13.232;2022-08-03T11:19:47;6.57;;;2.67;;
65667;SDS011;52369;52.542;13.232;2022-08-03T11:22:13;2.95;;;2.40;;
65667;SDS011;52369;52.542;13.232;2022-08-03T11:27:22;2.80;;;2.33;;
65667;SDS011;52369;52.542;13.232;2022-08-03T11:43:03;4.13;;;2.58;;
65667;SDS011;52369;52.542;13.232;2022-08-03T11:45:30;4.00;;;2.60;;
65667;SDS011;52369;52.542;13.232;2022-08-03T11:47:56;3.85;;;2.30;;
65667;SDS011;52369;52.542;13.232;2022-08-03T11:50:23;5.68;;;2.78;;
65667;SDS011;52369;52.542;13.232;2022-08-03T11:52:49;4.18;;;2.58;;
65667;SDS011;52369;52.542;13.232;2022-08-03T11:55:16;2.90;;;2.40;;
65667;SDS011;52369;52.542;13.232;2022-08-03T11:57:44;3.03;;;2.53;;
65667;SDS011;52369;52.542;13.232;2022-08-03T12:03:09;3.28;;;2.35;;
65667;SDS011;52369;52.542;13.232;2022-08-03T12:08:01;3.00;;;2.28;;
65667;SDS011;52369;52.542;13.232;2022-08-03T12:10:27;3.25;;;2.25;;
65667;SDS011;52369;52.542;13.232;2022-08-03T12:12:55;5.82;;;2.90;;
65667;SDS011;52369;52.542;13.232;2022-08-03T12:15:25;5.43;;;2.95;;
65667;SDS011;52369;52.542;13.232;2022-08-03T12:17:51;2.45;;;2.25;;
65667;SDS011;52369;52.542;13.232;2022-08-03T12:20:21;4.15;;;2.45;;
65667;SDS011;52369;52.542;13.232;2022-08-03T12:22:47;3.17;;;2.80;;
65667;SDS011;52369;52.542;13.232;2022-08-03T12:25:23;4.28;;;2.20;;
65667;SDS011;52369;52.542;13.232;2022-08-03T12:27:50;4.00;;;2.25;;
65667;SDS011;52369;52.542;13.232;2022-08-03T12:30:17;4.90;;;2.30;;
65667;SDS011;52369;52.542;13.232;2022-08-03T12:32:43;3.47;;;2.53;;
65667;SDS011;52369;52.542;13.232;2022-08-03T12:35:09;3.67;;;2.75;;
65667;SDS011;52369;52.542;13.232;2022-08-03T12:37:35;3.45;;;2.50;;
65667;SDS011;52369;52.542;13.232;2022-08-03T12:40:02;3.30;;;2.50;;
65667;SDS011;52369;52.542;13.232;2022-08-03T12:42:34;2.10;;;1.90;;
65667;SDS011;52369;52.542;13.232;2022-08-03T12:45:16;5.80;;;2.35;;
65667;SDS011;52369;52.542;13.232;2022-08-03T12:47:55;5.57;;;2.47;;
65667;SDS011;52369;52.542;13.232;2022-08-03T12:50:22;5.65;;;2.80;;
65667;SDS011;52369;52.542;13.232;2022-08-03T12:52:48;5.70;;;2.80;;
65667;SDS011;52369;52.542;13.232;2022-08-03T12:55:18;3.97;;;2.78;;
65667;SDS011;52369;52.542;13.232;2022-08-03T12:57:44;3.30;;;2.45;;
65667;SDS011;52369;52.542;13.232;2022-08-03T13:00:14;3.22;;;2.50;;
65667;SDS011;52369;52.542;13.232;2022-08-03T13:02:40;5.35;;;2.80;;
65667;SDS011;52369;52.542;13.232;2022-08-03T13:05:11;6.07;;;3.25;;
65667;SDS011;52369;52.542;13.232;2022-08-03T13:07:40;4.03;;;3.10;;
65667;SDS011;52369;52.542;13.232;2022-08-03T13:10:07;4.65;;;2.92;;
65667;SDS011;52369;52.542;13.232;2022-08-03T13:12:44;5.35;;;2.58;;
65667;SDS011;52369;52.542;13.232;2022-08-03T13:15:10;5.60;;;2.80;;
65667;SDS011;52369;52.542;13.232;2022-08-03T13:17:36;2.95;;;2.63;;
65667;SDS011;52369;52.542;13.232;2022-08-03T13:20:02;4.55;;;3.10;;
65667;SDS011;52369;52.542;13.232;2022-08-03T13:22:28;2.83;;;2.40;;
65667;SDS011;52369;52.542;13.232;2022-08-03T13:24:54;4.68;;;2.40;;
65667;SDS011;52369;52.542;13.232;2022-08-03T13:27:21;4.50;;;2.58;;
65667;SDS011;52369;52.542;13.232;2022-08-03T13:29:48;3.45;;;2.50;;
65667;SDS011;52369;52.542;13.232;2022-08-03T13:32:14;2.70;;;2.50;;
65667;SDS011;52369;52.542;13.232;2022-08-03T13:34:40;8.55;;;3.38;;
65667;SDS011;52369;52.542;13.232;2022-08-03T13:37:06;2.72;;;2.50;;
65667;SDS011;52369;52.542;13.232;2022-08-03T13:39:33;3.33;;;2.50;;
65667;SDS011;52369;52.542;13.232;2022-08-03T13:41:59;2.85;;;2.47;;
65667;SDS011;52369;52.542;13.232;2022-08-03T13:44:25;5.22;;;2.35;;
65667;SDS011;52369;52.542;13.232;2022-08-03T13:46:51;4.00;;;2.55;;
65667;SDS011;52369;52.542;13.232;2022-08-03T13:49:17;3.25;;;2.30;;
65667;SDS011;52369;52.542;13.232;2022-08-03T13:51:43;2.95;;;2.38;;
65667;SDS011;52369;52.542;13.232;2022-08-03T13:54:09;3.10;;;2.75;;
65667;SDS011;52369;52.542;13.232;2022-08-03T13:56:35;3.20;;;2.50;;
65667;SDS011;52369;52.542;13.232;2022-08-03T13:59:01;3.17;;;2.40;;
65667;SDS011;52369;52.542;13.232;2022-08-03T14:01:27;3.13;;;2.42;;
65667;SDS011;52369;52.542;13.232;2022-08-03T14:03:53;3.70;;;2.75;;
65667;SDS011;52369;52.542;13.232;2022-08-03T14:06:21;5.78;;;2.72;;
65667;SDS011;52369;52.542;13.232;2022-08-03T14:08:47;3.65;;;2.55;;
65667;SDS011;52369;52.542;13.232;2022-08-03T14:11:14;4.15;;;3.10;;
65667;SDS011;52369;52.542;13.232;2022-08-03T14:13:40;4.85;;;2.75;;
65667;SDS011;52369;52.542;13.232;2022-08-03T14:16:06;4.10;;;2.90;;
65667;SDS011;52369;52.542;13.232;2022-08-03T14:18:32;2.65;;;2.33;;
65667;SDS011;52369;52.542;13.232;2022-08-03T14:20:58;2.85;;;2.58;;
65667;SDS011;52369;52.542;13.232;2022-08-03T14:23:24;4.03;;;2.35;;
65667;SDS011;52369;52.542;13.232;2022-08-03T14:25:51;3.08;;;2.47;;
65667;SDS011;52369;52.542;13.232;2022-08-03T14:28:17;4.18;;;2.70;;
65667;SDS011;52369;52.542;13.232;2022-08-03T14:30:43;4.65;;;2.58;;
65667;SDS011;52369;52.542;13.232;2022-08-03T14:33:10;3.03;;;2.70;;
65667;SDS011;52369;52.542;13.232;2022-08-03T14:35:35;2.85;;;2.60;;
65667;SDS011;52369;52.542;13.232;2022-08-03T14:38:02;6.20;;;2.53;;
65667;SDS011;52369;52.542;13.232;2022-08-03T14:40:28;3.00;;;2.60;;
65667;SDS011;52369;52.542;13.232;2022-08-03T14:42:54;4.65;;;3.00;;
65667;SDS011;52369;52.542;13.232;2022-08-03T14:45:20;5.07;;;2.88;;
65667;SDS011;52369;52.542;13.232;2022-08-03T14:47:45;4.50;;;2.90;;
65667;SDS011;52369;52.542;13.232;2022-08-03T14:50:11;3.65;;;2.50;;
65667;SDS011;52369;52.542;13.232;2022-08-03T14:52:37;3.83;;;2.85;;
65667;SDS011;52369;52.542;13.232;2022-08-03T14:55:04;5.10;;;2.88;;
65667;SDS011;52369;52.542;13.232;2022-08-03T14:57:30;5.85;;;3.03;;
65667;SDS011;52369;52.542;13.232;2022-08-03T14:59:56;5.63;;;2.63;;
65667;SDS011;52369;52.542;13.232;2022-08-03T15:02:22;3.15;;;2.85;;
65667;SDS011;52369;52.542;13.232;2022-08-03T15:04:48;3.90;;;2.75;;
65667;SDS011;52369;52.542;13.232;2022-08-03T15:07:14;3.92;;;2.85;;
65667;SDS011;52369;52.542;13.232;2022-08-03T15:09:40;3.40;;;3.08;;
65667;SDS011;52369;52.542;13.232;2022-08-03T15:12:06;3.15;;;2.53;;
65667;SDS011;52369;52.542;13.232;2022-08-03T15:14:32;3.97;;;2.40;;
65667;SDS011;52369;52.542;13.232;2022-08-03T15:16:58;5.35;;;3.28;;
65667;SDS011;52369;52.542;13.232;2022-08-03T15:19:24;3.15;;;2.85;;
65667;SDS011;52369;52.542;13.232;2022-08-03T15:21:50;4.63;;;2.35;;
65667;SDS011;52369;52.542;13.232;2022-08-03T15:24:16;3.05;;;2.40;;